sensor_id;sensor_type;location;lat;lon;timestamp;P1;durP1;ratioP1;P2;durP2;ratioP2
11970;SDS011;6045;42.682;23.294;2023-07-29T00:00:40;3.67;;;2.30;;
11970;SDS011;6045;42.682;23.294;2023-07-29T00:03:07;3.17;;;2.38;;
11970;SDS011;6045;42.682;23.294;2023-07-29T00:05:34;2.60;;;2.17;;
11970;SDS011;6045;42.682;23.294;2023-07-29T00:08:01;2.95;;;2.42;;
11970;SDS011;6045;42.682;23.294;2023-07-29T00:10:28;3.17;;;2.53;;
11970;SDS011;6045;42.682;23.294;2023-07-29T00:12:56;3.08;;;2.60;;
11970;SDS011;6045;42.682;23.294;2023-07-29T00:15:23;4.93;;;2.42;;
11970;SDS011;6045;42.682;23.294;2023-07-29T00:17:50;4.03;;;2.55;;
11970;SDS011;6045;42.682;23.294;2023-07-29T00:20:16;2.72;;;2.17;;
11970;SDS011;6045;42.682;23.294;2023-07-29T00:22:43;3.78;;;2.22;;
11970;SDS011;6045;42.682;23.294;2023-07-29T00:25:10;4.35;;;2.40;;
11970;SDS011;6045;42.682;23.294;2023-07-29T00:27:37;2.97;;;2.40;;
11970;SDS011;6045;42.682;23.294;2023-07-29T00:30:06;2.42;;;2.22;;
11970;SDS011;6045;42.682;23.294;2023-07-29T00:32:34;2.47;;;1.95;;
11970;SDS011;6045;42.682;23.294;2023-07-29T00:35:01;2.90;;;2.47;;
11970;SDS011;6045;42.682;23.294;2023-07-29T00:37:29;2.95;;;2.38;;
11970;SDS011;6045;42.682;23.294;2023-07-29T00:39:56;3.03;;;2.20;;
11970;SDS011;6045;42.682;23.294;2023-07-29T00:42:23;2.80;;;2.22;;
11970;SDS011;6045;42.682;23.294;2023-07-29T00:44:50;4.63;;;2.53;;
11970;SDS011;6045;42.682;23.294;2023-07-29T00:47:18;3.92;;;2.25;;
11970;SDS011;6045;42.682;23.294;2023-07-29T00:49:46;3.10;;;2.42;;
11970;SDS011;6045;42.682;23.294;2023-07-29T00:52:13;3.17;;;2.08;;
11970;SDS011;6045;42.682;23.294;2023-07-29T00:54:40;3.92;;;2.65;;
11970;SDS011;6045;42.682;23.294;2023-07-29T00:57:07;2.95;;;2.58;;
11970;SDS011;6045;42.682;23.294;2023-07-29T00:59:35;2.35;;;2.15;;
11970;SDS011;6045;42.682;23.294;2023-07-29T01:02:02;2.53;;;2.30;;
11970;SDS011;6045;42.682;23.294;2023-07-29T01:04:31;2.45;;;1.98;;
11970;SDS011;6045;42.682;23.294;2023-07-29T01:06:58;3.03;;;2.42;;
11970;SDS011;6045;42.682;23.294;2023-07-29T01:09:34;2.20;;;2.00;;
11970;SDS011;6045;42.682;23.294;2023-07-29T01:12:11;2.60;;;2.22;;
11970;SDS011;6045;42.682;23.294;2023-07-29T01:14:46;3.97;;;2.13;;
11970;SDS011;6045;42.682;23.294;2023-07-29T01:17:19;3.28;;;2.22;;
11970;SDS011;6045;42.682;23.294;2023-07-29T01:19:55;1.90;;;1.67;;
11970;SDS011;6045;42.682;23.294;2023-07-29T01:22:30;5.32;;;2.60;;
11970;SDS011;6045;42.682;23.294;2023-07-29T01:24:59;2.30;;;2.10;;
11970;SDS011;6045;42.682;23.294;2023-07-29T01:27:26;3.63;;;2.45;;
11970;SDS011;6045;42.682;23.294;2023-07-29T01:29:53;2.15;;;1.95;;
11970;SDS011;6045;42.682;23.294;2023-07-29T01:32:23;3.30;;;2.00;;
11970;SDS011;6045;42.682;23.294;2023-07-29T01:34:56;2.75;;;2.38;;
11970;SDS011;6045;42.682;23.294;2023-07-29T01:37:30;3.67;;;2.20;;
11970;SDS011;6045;42.682;23.294;2023-07-29T01:40:02;3.53;;;1.88;;
11970;SDS011;6045;42.682;23.294;2023-07-29T01:42:30;5.25;;;2.47;;
11970;SDS011;6045;42.682;23.294;2023-07-29T01:44:57;2.38;;;2.13;;
11970;SDS011;6045;42.682;23.294;2023-07-29T01:47:24;2.60;;;2.13;;
11970;SDS011;6045;42.682;23.294;2023-07-29T01:49:51;2.20;;;2.00;;
11970;SDS011;6045;42.682;23.294;2023-07-29T01:52:18;2.42;;;1.88;;
11970;SDS011;6045;42.682;23.294;2023-07-29T01:54:44;6.80;;;2.33;;
11970;SDS011;6045;42.682;23.294;2023-07-29T01:57:13;2.40;;;2.15;;
11970;SDS011;6045;42.682;23.294;2023-07-29T01:59:39;2.40;;;2.15;;
11970;SDS011;6045;42.682;23.294;2023-07-29T02:02:06;3.35;;;2.35;;
11970;SDS011;6045;42.682;23.294;2023-07-29T02:04:33;2.22;;;1.98;;
11970;SDS011;6045;42.682;23.294;2023-07-29T02:07:00;5.68;;;1.95;;
11970;SDS011;6045;42.682;23.294;2023-07-29T02:09:26;2.38;;;2.17;;
11970;SDS011;6045;42.682;23.294;2023-07-29T02:11:54;5.03;;;2.58;;
11970;SDS011;6045;42.682;23.294;2023-07-29T02:14:22;3.92;;;2.10;;
11970;SDS011;6045;42.682;23.294;2023-07-29T02:16:49;2.63;;;2.30;;
11970;SDS011;6045;42.682;23.294;2023-07-29T02:19:18;4.35;;;2.35;;
11970;SDS011;6045;42.682;23.294;2023-07-29T02:21:45;3.42;;;2.42;;
11970;SDS011;6045;42.682;23.294;2023-07-29T02:24:12;3.33;;;2.33;;
11970;SDS011;6045;42.682;23.294;2023-07-29T02:26:38;3.88;;;2.55;;
11970;SDS011;6045;42.682;23.294;2023-07-29T02:29:05;2.60;;;2.40;;
11970;SDS011;6045;42.682;23.294;2023-07-29T02:31:33;3.38;;;2.20;;
11970;SDS011;6045;42.682;23.294;2023-07-29T02:34:02;3.28;;;2.42;;
11970;SDS011;6045;42.682;23.294;2023-07-29T02:36:29;3.40;;;2.15;;
11970;SDS011;6045;42.682;23.294;2023-07-29T02:38:56;2.63;;;2.17;;
11970;SDS011;6045;42.682;23.294;2023-07-29T02:41:26;2.67;;;2.22;;
11970;SDS011;6045;42.682;23.294;2023-07-29T02:43:52;2.38;;;2.17;;
11970;SDS011;6045;42.682;23.294;2023-07-29T02:46:19;3.20;;;2.88;;
11970;SDS011;6045;42.682;23.294;2023-07-29T02:48:47;3.25;;;2.55;;
11970;SDS011;6045;42.682;23.294;2023-07-29T02:51:14;2.58;;;2.15;;
11970;SDS011;6045;42.682;23.294;2023-07-29T02:53:41;4.97;;;2.63;;
11970;SDS011;6045;42.682;23.294;2023-07-29T02:56:08;3.17;;;2.88;;
11970;SDS011;6045;42.682;23.294;2023-07-29T02:58:35;4.35;;;2.92;;
11970;SDS011;6045;42.682;23.294;2023-07-29T03:01:02;3.05;;;2.72;;
11970;SDS011;6045;42.682;23.294;2023-07-29T03:03:30;3.38;;;2.67;;
11970;SDS011;6045;42.682;23.294;2023-07-29T03:05:59;3.25;;;2.35;;
11970;SDS011;6045;42.682;23.294;2023-07-29T03:08:27;2.55;;;2.35;;
11970;SDS011;6045;42.682;23.294;2023-07-29T03:10:54;3.63;;;2.70;;
11970;SDS011;6045;42.682;23.294;2023-07-29T03:13:21;4.40;;;2.67;;
11970;SDS011;6045;42.682;23.294;2023-07-29T03:15:47;2.90;;;2.47;;
11970;SDS011;6045;42.682;23.294;2023-07-29T03:18:15;2.95;;;2.33;;
11970;SDS011;6045;42.682;23.294;2023-07-29T03:20:41;4.82;;;2.67;;
11970;SDS011;6045;42.682;23.294;2023-07-29T03:23:09;3.20;;;2.70;;
11970;SDS011;6045;42.682;23.294;2023-07-29T03:25:36;4.20;;;2.45;;
11970;SDS011;6045;42.682;23.294;2023-07-29T03:28:03;3.03;;;2.50;;
11970;SDS011;6045;42.682;23.294;2023-07-29T03:30:30;4.13;;;2.58;;
11970;SDS011;6045;42.682;23.294;2023-07-29T03:32:56;3.22;;;2.60;;
11970;SDS011;6045;42.682;23.294;2023-07-29T03:35:23;3.03;;;2.45;;
11970;SDS011;6045;42.682;23.294;2023-07-29T03:37:50;3.35;;;2.60;;
11970;SDS011;6045;42.682;23.294;2023-07-29T03:40:18;4.57;;;2.63;;
11970;SDS011;6045;42.682;23.294;2023-07-29T03:42:45;3.38;;;2.70;;
11970;SDS011;6045;42.682;23.294;2023-07-29T03:45:12;4.03;;;2.53;;
11970;SDS011;6045;42.682;23.294;2023-07-29T03:47:38;4.25;;;3.35;;
11970;SDS011;6045;42.682;23.294;2023-07-29T03:50:05;3.85;;;2.55;;
11970;SDS011;6045;42.682;23.294;2023-07-29T03:52:32;3.35;;;2.35;;
11970;SDS011;6045;42.682;23.294;2023-07-29T03:55:02;5.13;;;2.70;;
11970;SDS011;6045;42.682;23.294;2023-07-29T03:57:30;3.13;;;2.38;;
11970;SDS011;6045;42.682;23.294;2023-07-29T03:59:57;2.72;;;2.15;;
11970;SDS011;6045;42.682;23.294;2023-07-29T04:02:24;3.70;;;2.25;;
11970;SDS011;6045;42.682;23.294;2023-07-29T04:04:51;2.55;;;2.35;;
11970;SDS011;6045;42.682;23.294;2023-07-29T04:07:17;2.78;;;2.50;;
11970;SDS011;6045;42.682;23.294;2023-07-29T04:09:44;3.80;;;2.70;;
11970;SDS011;6045;42.682;23.294;2023-07-29T04:12:11;3.45;;;2.65;;
11970;SDS011;6045;42.682;23.294;2023-07-29T04:14:39;5.90;;;2.58;;
11970;SDS011;6045;42.682;23.294;2023-07-29T04:17:06;2.85;;;2.33;;
11970;SDS011;6045;42.682;23.294;2023-07-29T04:19:39;3.72;;;2.55;;
11970;SDS011;6045;42.682;23.294;2023-07-29T04:22:06;2.85;;;2.17;;
11970;SDS011;6045;42.682;23.294;2023-07-29T04:24:33;3.85;;;2.30;;
11970;SDS011;6045;42.682;23.294;2023-07-29T04:27:00;3.45;;;2.60;;
11970;SDS011;6045;42.682;23.294;2023-07-29T04:29:27;3.80;;;2.65;;
11970;SDS011;6045;42.682;23.294;2023-07-29T04:31:55;3.40;;;2.40;;
11970;SDS011;6045;42.682;23.294;2023-07-29T04:34:22;3.13;;;2.83;;
11970;SDS011;6045;42.682;23.294;2023-07-29T04:36:49;2.35;;;2.10;;
11970;SDS011;6045;42.682;23.294;2023-07-29T04:39:15;2.63;;;2.33;;
11970;SDS011;6045;42.682;23.294;2023-07-29T04:41:43;4.82;;;2.83;;
11970;SDS011;6045;42.682;23.294;2023-07-29T04:44:10;3.35;;;2.35;;
11970;SDS011;6045;42.682;23.294;2023-07-29T04:46:36;4.53;;;2.75;;
11970;SDS011;6045;42.682;23.294;2023-07-29T04:49:05;3.78;;;2.70;;
11970;SDS011;6045;42.682;23.294;2023-07-29T04:51:32;4.55;;;3.30;;
11970;SDS011;6045;42.682;23.294;2023-07-29T04:53:59;5.90;;;3.20;;
11970;SDS011;6045;42.682;23.294;2023-07-29T04:56:25;3.78;;;3.15;;
11970;SDS011;6045;42.682;23.294;2023-07-29T04:58:52;4.40;;;3.25;;
11970;SDS011;6045;42.682;23.294;2023-07-29T05:01:19;4.95;;;3.50;;
11970;SDS011;6045;42.682;23.294;2023-07-29T05:03:46;4.40;;;3.63;;
11970;SDS011;6045;42.682;23.294;2023-07-29T05:06:14;4.13;;;3.22;;
11970;SDS011;6045;42.682;23.294;2023-07-29T05:08:41;6.00;;;3.03;;
11970;SDS011;6045;42.682;23.294;2023-07-29T05:11:07;3.63;;;3.25;;
11970;SDS011;6045;42.682;23.294;2023-07-29T05:13:34;5.03;;;3.00;;
11970;SDS011;6045;42.682;23.294;2023-07-29T05:16:01;5.10;;;3.53;;
11970;SDS011;6045;42.682;23.294;2023-07-29T05:18:28;5.60;;;3.20;;
11970;SDS011;6045;42.682;23.294;2023-07-29T05:20:54;4.10;;;3.33;;
11970;SDS011;6045;42.682;23.294;2023-07-29T05:23:22;2.80;;;2.45;;
11970;SDS011;6045;42.682;23.294;2023-07-29T05:25:50;5.20;;;3.42;;
11970;SDS011;6045;42.682;23.294;2023-07-29T05:28:16;4.13;;;2.70;;
11970;SDS011;6045;42.682;23.294;2023-07-29T05:30:43;3.88;;;2.92;;
11970;SDS011;6045;42.682;23.294;2023-07-29T05:33:10;4.00;;;2.90;;
11970;SDS011;6045;42.682;23.294;2023-07-29T05:35:37;2.67;;;2.47;;
11970;SDS011;6045;42.682;23.294;2023-07-29T05:38:03;4.32;;;3.00;;
11970;SDS011;6045;42.682;23.294;2023-07-29T05:40:33;6.32;;;3.15;;
11970;SDS011;6045;42.682;23.294;2023-07-29T05:43:00;4.57;;;3.00;;
11970;SDS011;6045;42.682;23.294;2023-07-29T05:45:28;3.40;;;2.75;;
11970;SDS011;6045;42.682;23.294;2023-07-29T05:47:56;3.83;;;3.28;;
11970;SDS011;6045;42.682;23.294;2023-07-29T05:50:22;3.95;;;3.08;;
11970;SDS011;6045;42.682;23.294;2023-07-29T05:52:49;4.55;;;3.72;;
11970;SDS011;6045;42.682;23.294;2023-07-29T05:55:16;4.32;;;3.15;;
11970;SDS011;6045;42.682;23.294;2023-07-29T05:57:44;5.07;;;3.38;;
11970;SDS011;6045;42.682;23.294;2023-07-29T06:00:11;4.13;;;3.08;;
11970;SDS011;6045;42.682;23.294;2023-07-29T06:02:38;3.25;;;2.95;;
11970;SDS011;6045;42.682;23.294;2023-07-29T06:05:06;5.80;;;3.15;;
11970;SDS011;6045;42.682;23.294;2023-07-29T06:07:33;6.43;;;4.07;;
11970;SDS011;6045;42.682;23.294;2023-07-29T06:10:00;3.75;;;3.35;;
11970;SDS011;6045;42.682;23.294;2023-07-29T06:12:27;3.78;;;3.10;;
11970;SDS011;6045;42.682;23.294;2023-07-29T06:14:55;5.38;;;3.03;;
11970;SDS011;6045;42.682;23.294;2023-07-29T06:17:21;3.25;;;2.53;;
11970;SDS011;6045;42.682;23.294;2023-07-29T06:19:48;4.20;;;2.90;;
11970;SDS011;6045;42.682;23.294;2023-07-29T06:22:15;4.75;;;3.10;;
11970;SDS011;6045;42.682;23.294;2023-07-29T06:24:42;3.53;;;3.22;;
11970;SDS011;6045;42.682;23.294;2023-07-29T06:27:09;4.40;;;2.50;;
11970;SDS011;6045;42.682;23.294;2023-07-29T06:29:35;3.63;;;3.05;;
11970;SDS011;6045;42.682;23.294;2023-07-29T06:32:04;3.85;;;2.85;;
11970;SDS011;6045;42.682;23.294;2023-07-29T06:34:31;3.97;;;2.80;;
11970;SDS011;6045;42.682;23.294;2023-07-29T06:36:58;3.35;;;2.75;;
11970;SDS011;6045;42.682;23.294;2023-07-29T06:39:25;5.75;;;3.08;;
11970;SDS011;6045;42.682;23.294;2023-07-29T06:41:52;4.18;;;3.75;;
11970;SDS011;6045;42.682;23.294;2023-07-29T06:44:18;2.97;;;2.65;;
11970;SDS011;6045;42.682;23.294;2023-07-29T06:46:45;4.13;;;2.97;;
11970;SDS011;6045;42.682;23.294;2023-07-29T06:49:14;3.95;;;2.85;;
11970;SDS011;6045;42.682;23.294;2023-07-29T06:51:40;3.42;;;2.92;;
11970;SDS011;6045;42.682;23.294;2023-07-29T06:54:07;3.88;;;3.08;;
11970;SDS011;6045;42.682;23.294;2023-07-29T06:56:34;9.02;;;3.00;;
11970;SDS011;6045;42.682;23.294;2023-07-29T06:59:01;5.03;;;2.58;;
11970;SDS011;6045;42.682;23.294;2023-07-29T07:01:27;3.45;;;2.78;;
11970;SDS011;6045;42.682;23.294;2023-07-29T07:03:54;3.33;;;2.85;;
11970;SDS011;6045;42.682;23.294;2023-07-29T07:06:24;2.95;;;2.53;;
11970;SDS011;6045;42.682;23.294;2023-07-29T07:08:51;3.15;;;2.78;;
11970;SDS011;6045;42.682;23.294;2023-07-29T07:11:18;3.15;;;2.70;;
11970;SDS011;6045;42.682;23.294;2023-07-29T07:13:45;2.92;;;2.63;;
11970;SDS011;6045;42.682;23.294;2023-07-29T07:16:14;3.17;;;2.65;;
11970;SDS011;6045;42.682;23.294;2023-07-29T07:18:41;3.35;;;3.03;;
11970;SDS011;6045;42.682;23.294;2023-07-29T07:21:07;2.78;;;2.53;;
11970;SDS011;6045;42.682;23.294;2023-07-29T07:23:36;3.17;;;2.78;;
11970;SDS011;6045;42.682;23.294;2023-07-29T07:26:02;3.33;;;2.55;;
11970;SDS011;6045;42.682;23.294;2023-07-29T07:28:31;2.92;;;2.70;;
11970;SDS011;6045;42.682;23.294;2023-07-29T07:30:58;6.03;;;3.13;;
11970;SDS011;6045;42.682;23.294;2023-07-29T07:33:24;5.13;;;2.95;;
11970;SDS011;6045;42.682;23.294;2023-07-29T07:35:51;3.65;;;3.05;;
11970;SDS011;6045;42.682;23.294;2023-07-29T07:38:18;4.82;;;2.95;;
11970;SDS011;6045;42.682;23.294;2023-07-29T07:40:53;3.85;;;3.17;;
11970;SDS011;6045;42.682;23.294;2023-07-29T07:43:21;3.13;;;2.60;;
11970;SDS011;6045;42.682;23.294;2023-07-29T07:45:47;3.38;;;2.85;;
11970;SDS011;6045;42.682;23.294;2023-07-29T07:48:14;4.35;;;2.75;;
11970;SDS011;6045;42.682;23.294;2023-07-29T07:50:41;4.38;;;2.88;;
11970;SDS011;6045;42.682;23.294;2023-07-29T07:53:10;3.22;;;2.90;;
11970;SDS011;6045;42.682;23.294;2023-07-29T07:55:38;3.10;;;2.55;;
11970;SDS011;6045;42.682;23.294;2023-07-29T07:58:06;4.10;;;2.70;;
11970;SDS011;6045;42.682;23.294;2023-07-29T08:00:32;6.38;;;3.42;;
11970;SDS011;6045;42.682;23.294;2023-07-29T08:02:59;6.60;;;3.30;;
11970;SDS011;6045;42.682;23.294;2023-07-29T08:05:26;2.75;;;2.55;;
11970;SDS011;6045;42.682;23.294;2023-07-29T08:07:53;4.20;;;2.97;;
11970;SDS011;6045;42.682;23.294;2023-07-29T08:10:19;4.18;;;3.38;;
11970;SDS011;6045;42.682;23.294;2023-07-29T08:12:46;4.10;;;2.80;;
11970;SDS011;6045;42.682;23.294;2023-07-29T08:15:14;6.35;;;3.80;;
11970;SDS011;6045;42.682;23.294;2023-07-29T08:17:41;3.50;;;3.03;;
11970;SDS011;6045;42.682;23.294;2023-07-29T08:20:08;3.65;;;3.35;;
11970;SDS011;6045;42.682;23.294;2023-07-29T08:22:35;4.35;;;2.95;;
11970;SDS011;6045;42.682;23.294;2023-07-29T08:25:02;4.07;;;3.25;;
11970;SDS011;6045;42.682;23.294;2023-07-29T08:27:29;3.40;;;2.67;;
11970;SDS011;6045;42.682;23.294;2023-07-29T08:29:56;4.93;;;2.63;;
11970;SDS011;6045;42.682;23.294;2023-07-29T08:32:24;2.83;;;2.42;;
11970;SDS011;6045;42.682;23.294;2023-07-29T08:34:51;5.53;;;3.10;;
11970;SDS011;6045;42.682;23.294;2023-07-29T08:37:17;4.00;;;2.60;;
11970;SDS011;6045;42.682;23.294;2023-07-29T08:39:44;3.83;;;2.20;;
11970;SDS011;6045;42.682;23.294;2023-07-29T08:42:11;3.38;;;2.90;;
11970;SDS011;6045;42.682;23.294;2023-07-29T08:44:40;3.17;;;2.75;;
11970;SDS011;6045;42.682;23.294;2023-07-29T08:47:07;3.00;;;2.70;;
11970;SDS011;6045;42.682;23.294;2023-07-29T08:49:35;3.08;;;2.78;;
11970;SDS011;6045;42.682;23.294;2023-07-29T08:52:04;4.78;;;2.70;;
11970;SDS011;6045;42.682;23.294;2023-07-29T08:54:35;2.47;;;2.28;;
11970;SDS011;6045;42.682;23.294;2023-07-29T08:57:02;2.42;;;2.22;;
11970;SDS011;6045;42.682;23.294;2023-07-29T08:59:30;3.05;;;2.50;;
11970;SDS011;6045;42.682;23.294;2023-07-29T09:01:57;2.53;;;2.33;;
11970;SDS011;6045;42.682;23.294;2023-07-29T09:04:24;3.75;;;2.08;;
11970;SDS011;6045;42.682;23.294;2023-07-29T09:06:53;2.17;;;1.98;;
11970;SDS011;6045;42.682;23.294;2023-07-29T09:09:22;2.85;;;2.20;;
11970;SDS011;6045;42.682;23.294;2023-07-29T09:11:48;4.57;;;2.85;;
11970;SDS011;6045;42.682;23.294;2023-07-29T09:14:15;3.83;;;1.92;;
11970;SDS011;6045;42.682;23.294;2023-07-29T09:16:42;1.95;;;1.75;;
11970;SDS011;6045;42.682;23.294;2023-07-29T09:19:10;3.13;;;2.42;;
11970;SDS011;6045;42.682;23.294;2023-07-29T09:21:38;4.43;;;2.05;;
11970;SDS011;6045;42.682;23.294;2023-07-29T09:24:06;2.70;;;1.70;;
11970;SDS011;6045;42.682;23.294;2023-07-29T09:26:34;1.95;;;1.75;;
11970;SDS011;6045;42.682;23.294;2023-07-29T09:29:01;1.83;;;1.73;;
11970;SDS011;6045;42.682;23.294;2023-07-29T09:31:28;2.00;;;1.45;;
11970;SDS011;6045;42.682;23.294;2023-07-29T09:33:56;2.28;;;1.70;;
11970;SDS011;6045;42.682;23.294;2023-07-29T09:36:24;2.83;;;1.80;;
11970;SDS011;6045;42.682;23.294;2023-07-29T09:38:54;2.50;;;1.58;;
11970;SDS011;6045;42.682;23.294;2023-07-29T09:41:23;2.08;;;1.40;;
11970;SDS011;6045;42.682;23.294;2023-07-29T09:43:57;2.20;;;1.60;;
11970;SDS011;6045;42.682;23.294;2023-07-29T09:46:31;1.98;;;1.38;;
11970;SDS011;6045;42.682;23.294;2023-07-29T09:49:01;3.53;;;1.70;;
11970;SDS011;6045;42.682;23.294;2023-07-29T09:51:28;1.77;;;1.60;;
11970;SDS011;6045;42.682;23.294;2023-07-29T09:54:12;1.98;;;1.77;;
11970;SDS011;6045;42.682;23.294;2023-07-29T09:56:42;2.50;;;1.65;;
11970;SDS011;6045;42.682;23.294;2023-07-29T09:59:10;1.83;;;1.67;;
11970;SDS011;6045;42.682;23.294;2023-07-29T10:01:37;1.55;;;1.45;;
11970;SDS011;6045;42.682;23.294;2023-07-29T10:04:04;2.03;;;1.80;;
11970;SDS011;6045;42.682;23.294;2023-07-29T10:06:32;2.63;;;1.38;;
11970;SDS011;6045;42.682;23.294;2023-07-29T10:09:00;1.10;;;1.10;;
11970;SDS011;6045;42.682;23.294;2023-07-29T10:11:27;1.48;;;1.20;;
11970;SDS011;6045;42.682;23.294;2023-07-29T10:13:57;1.58;;;1.48;;
11970;SDS011;6045;42.682;23.294;2023-07-29T10:16:25;1.40;;;1.30;;
11970;SDS011;6045;42.682;23.294;2023-07-29T10:18:52;1.55;;;1.40;;
11970;SDS011;6045;42.682;23.294;2023-07-29T10:21:19;1.67;;;1.23;;
11970;SDS011;6045;42.682;23.294;2023-07-29T10:23:48;1.58;;;1.23;;
11970;SDS011;6045;42.682;23.294;2023-07-29T10:26:19;1.42;;;1.10;;
11970;SDS011;6045;42.682;23.294;2023-07-29T10:28:47;2.20;;;1.30;;
11970;SDS011;6045;42.682;23.294;2023-07-29T10:31:16;1.83;;;1.42;;
11970;SDS011;6045;42.682;23.294;2023-07-29T10:33:44;1.33;;;1.23;;
11970;SDS011;6045;42.682;23.294;2023-07-29T10:36:11;1.73;;;1.33;;
11970;SDS011;6045;42.682;23.294;2023-07-29T10:38:39;1.70;;;1.30;;
11970;SDS011;6045;42.682;23.294;2023-07-29T10:41:07;2.17;;;1.38;;
11970;SDS011;6045;42.682;23.294;2023-07-29T10:43:34;4.15;;;1.40;;
11970;SDS011;6045;42.682;23.294;2023-07-29T10:46:16;0.90;;;0.90;;
11970;SDS011;6045;42.682;23.294;2023-07-29T10:48:44;1.10;;;1.00;;
11970;SDS011;6045;42.682;23.294;2023-07-29T10:51:22;1.63;;;1.48;;
11970;SDS011;6045;42.682;23.294;2023-07-29T10:53:52;1.50;;;1.10;;
11970;SDS011;6045;42.682;23.294;2023-07-29T10:56:30;2.35;;;1.17;;
11970;SDS011;6045;42.682;23.294;2023-07-29T10:58:59;1.23;;;1.13;;
11970;SDS011;6045;42.682;23.294;2023-07-29T11:01:52;2.65;;;1.23;;
11970;SDS011;6045;42.682;23.294;2023-07-29T11:04:24;1.45;;;1.10;;
11970;SDS011;6045;42.682;23.294;2023-07-29T11:10:01;0.95;;;0.85;;
11970;SDS011;6045;42.682;23.294;2023-07-29T11:12:39;4.63;;;1.15;;
11970;SDS011;6045;42.682;23.294;2023-07-29T11:15:17;1.10;;;1.00;;
11970;SDS011;6045;42.682;23.294;2023-07-29T11:17:47;0.80;;;0.80;;
11970;SDS011;6045;42.682;23.294;2023-07-29T11:20:16;1.30;;;1.02;;
11970;SDS011;6045;42.682;23.294;2023-07-29T11:22:43;1.00;;;1.00;;
11970;SDS011;6045;42.682;23.294;2023-07-29T11:25:11;1.35;;;1.23;;
11970;SDS011;6045;42.682;23.294;2023-07-29T11:27:39;1.35;;;1.00;;
11970;SDS011;6045;42.682;23.294;2023-07-29T11:30:07;1.25;;;1.10;;
11970;SDS011;6045;42.682;23.294;2023-07-29T11:32:34;0.82;;;0.82;;
11970;SDS011;6045;42.682;23.294;2023-07-29T11:35:04;2.13;;;1.17;;
11970;SDS011;6045;42.682;23.294;2023-07-29T11:37:32;1.13;;;1.02;;
11970;SDS011;6045;42.682;23.294;2023-07-29T11:40:00;1.08;;;0.93;;
11970;SDS011;6045;42.682;23.294;2023-07-29T11:42:27;1.52;;;1.10;;
11970;SDS011;6045;42.682;23.294;2023-07-29T11:44:56;1.65;;;1.05;;
11970;SDS011;6045;42.682;23.294;2023-07-29T11:47:24;0.70;;;0.70;;
11970;SDS011;6045;42.682;23.294;2023-07-29T11:49:51;1.60;;;1.13;;
11970;SDS011;6045;42.682;23.294;2023-07-29T11:52:19;1.20;;;1.10;;
11970;SDS011;6045;42.682;23.294;2023-07-29T11:54:47;1.33;;;1.10;;
11970;SDS011;6045;42.682;23.294;2023-07-29T11:57:15;1.30;;;1.15;;
11970;SDS011;6045;42.682;23.294;2023-07-29T11:59:43;1.23;;;1.10;;
11970;SDS011;6045;42.682;23.294;2023-07-29T12:02:11;1.55;;;1.27;;
11970;SDS011;6045;42.682;23.294;2023-07-29T12:04:39;1.63;;;1.00;;
11970;SDS011;6045;42.682;23.294;2023-07-29T12:07:07;1.30;;;1.15;;
11970;SDS011;6045;42.682;23.294;2023-07-29T12:09:36;1.23;;;1.17;;
11970;SDS011;6045;42.682;23.294;2023-07-29T12:12:06;1.20;;;1.10;;
11970;SDS011;6045;42.682;23.294;2023-07-29T12:14:33;1.42;;;1.30;;
11970;SDS011;6045;42.682;23.294;2023-07-29T12:17:01;1.20;;;1.10;;
11970;SDS011;6045;42.682;23.294;2023-07-29T12:19:32;1.92;;;1.13;;
11970;SDS011;6045;42.682;23.294;2023-07-29T12:22:00;1.30;;;1.20;;
11970;SDS011;6045;42.682;23.294;2023-07-29T12:24:27;1.50;;;1.30;;
11970;SDS011;6045;42.682;23.294;2023-07-29T12:26:57;1.40;;;1.25;;
11970;SDS011;6045;42.682;23.294;2023-07-29T12:29:24;1.40;;;1.20;;
11970;SDS011;6045;42.682;23.294;2023-07-29T12:31:56;1.27;;;1.17;;
11970;SDS011;6045;42.682;23.294;2023-07-29T12:34:25;1.52;;;1.33;;
11970;SDS011;6045;42.682;23.294;2023-07-29T12:36:53;1.10;;;1.00;;
11970;SDS011;6045;42.682;23.294;2023-07-29T12:39:21;1.90;;;1.30;;
11970;SDS011;6045;42.682;23.294;2023-07-29T12:41:49;1.20;;;0.98;;
11970;SDS011;6045;42.682;23.294;2023-07-29T12:44:22;1.73;;;1.27;;
11970;SDS011;6045;42.682;23.294;2023-07-29T12:46:49;1.77;;;1.10;;
11970;SDS011;6045;42.682;23.294;2023-07-29T12:49:15;1.50;;;1.40;;
11970;SDS011;6045;42.682;23.294;2023-07-29T12:51:42;1.30;;;1.20;;
11970;SDS011;6045;42.682;23.294;2023-07-29T12:54:09;1.17;;;1.00;;
11970;SDS011;6045;42.682;23.294;2023-07-29T12:56:36;1.08;;;1.05;;
11970;SDS011;6045;42.682;23.294;2023-07-29T12:59:03;1.00;;;0.90;;
11970;SDS011;6045;42.682;23.294;2023-07-29T13:01:32;1.50;;;1.10;;
11970;SDS011;6045;42.682;23.294;2023-07-29T13:03:59;1.75;;;1.23;;
11970;SDS011;6045;42.682;23.294;2023-07-29T13:06:26;1.65;;;1.17;;
11970;SDS011;6045;42.682;23.294;2023-07-29T13:08:52;1.85;;;1.02;;
11970;SDS011;6045;42.682;23.294;2023-07-29T13:11:19;1.52;;;1.05;;
11970;SDS011;6045;42.682;23.294;2023-07-29T13:13:46;2.08;;;1.00;;
11970;SDS011;6045;42.682;23.294;2023-07-29T13:16:13;1.40;;;1.27;;
11970;SDS011;6045;42.682;23.294;2023-07-29T13:18:41;1.58;;;1.38;;
11970;SDS011;6045;42.682;23.294;2023-07-29T13:21:09;1.20;;;1.05;;
11970;SDS011;6045;42.682;23.294;2023-07-29T13:23:36;1.63;;;1.20;;
11970;SDS011;6045;42.682;23.294;2023-07-29T13:26:03;1.95;;;0.98;;
11970;SDS011;6045;42.682;23.294;2023-07-29T13:28:30;1.30;;;1.20;;
11970;SDS011;6045;42.682;23.294;2023-07-29T13:30:57;1.38;;;1.20;;
11970;SDS011;6045;42.682;23.294;2023-07-29T13:33:23;1.35;;;1.20;;
11970;SDS011;6045;42.682;23.294;2023-07-29T13:35:52;2.05;;;1.00;;
11970;SDS011;6045;42.682;23.294;2023-07-29T13:38:18;1.90;;;1.30;;
11970;SDS011;6045;42.682;23.294;2023-07-29T13:40:46;1.73;;;1.40;;
11970;SDS011;6045;42.682;23.294;2023-07-29T13:43:16;2.10;;;1.50;;
11970;SDS011;6045;42.682;23.294;2023-07-29T13:45:42;2.65;;;1.10;;
11970;SDS011;6045;42.682;23.294;2023-07-29T13:48:09;2.05;;;1.88;;
11970;SDS011;6045;42.682;23.294;2023-07-29T13:50:37;2.58;;;1.83;;
11970;SDS011;6045;42.682;23.294;2023-07-29T13:53:06;2.05;;;1.80;;
11970;SDS011;6045;42.682;23.294;2023-07-29T13:55:32;2.20;;;1.75;;
11970;SDS011;6045;42.682;23.294;2023-07-29T13:57:59;2.20;;;1.80;;
11970;SDS011;6045;42.682;23.294;2023-07-29T14:00:26;2.00;;;1.80;;
11970;SDS011;6045;42.682;23.294;2023-07-29T14:02:53;1.88;;;1.58;;
11970;SDS011;6045;42.682;23.294;2023-07-29T14:05:19;1.85;;;1.42;;
11970;SDS011;6045;42.682;23.294;2023-07-29T14:07:47;1.90;;;1.17;;
11970;SDS011;6045;42.682;23.294;2023-07-29T14:10:15;1.33;;;1.23;;
11970;SDS011;6045;42.682;23.294;2023-07-29T14:12:42;1.83;;;1.38;;
11970;SDS011;6045;42.682;23.294;2023-07-29T14:15:08;2.05;;;1.58;;
11970;SDS011;6045;42.682;23.294;2023-07-29T14:17:35;1.65;;;1.35;;
11970;SDS011;6045;42.682;23.294;2023-07-29T14:20:02;1.65;;;1.48;;
11970;SDS011;6045;42.682;23.294;2023-07-29T14:22:30;2.17;;;1.38;;
11970;SDS011;6045;42.682;23.294;2023-07-29T14:24:56;1.77;;;1.30;;
11970;SDS011;6045;42.682;23.294;2023-07-29T14:27:24;1.95;;;1.40;;
11970;SDS011;6045;42.682;23.294;2023-07-29T14:29:51;1.63;;;1.42;;
11970;SDS011;6045;42.682;23.294;2023-07-29T14:32:18;3.03;;;1.42;;
11970;SDS011;6045;42.682;23.294;2023-07-29T14:34:45;1.77;;;1.30;;
11970;SDS011;6045;42.682;23.294;2023-07-29T14:37:11;2.75;;;1.30;;
11970;SDS011;6045;42.682;23.294;2023-07-29T14:39:38;1.50;;;1.40;;
11970;SDS011;6045;42.682;23.294;2023-07-29T14:42:05;2.38;;;1.30;;
11970;SDS011;6045;42.682;23.294;2023-07-29T14:44:34;1.40;;;1.20;;
11970;SDS011;6045;42.682;23.294;2023-07-29T14:47:01;1.40;;;1.30;;
11970;SDS011;6045;42.682;23.294;2023-07-29T14:49:28;1.30;;;1.20;;
11970;SDS011;6045;42.682;23.294;2023-07-29T14:51:54;2.25;;;1.50;;
11970;SDS011;6045;42.682;23.294;2023-07-29T14:54:21;1.58;;;1.48;;